Date,TemperatureHighF,TemperatureAvgF,TemperatureLowF,DewpointHighF,DewpointAvgF,DewpointLowF,HumidityHigh,HumidityAvg,HumidityLow,PressureMaxIn,PressureMinIn,WindSpeedMaxMPH,WindSpeedAvgMPH,GustSpeedMaxMPH,PrecipitationSumIn
2013-8-1,80,71,63,67,63,61,94,76,53,29.99,29.83,9,0,9,0.00
2013-8-2,83,71,64,69,63,59,98,78,49,29.83,29.73,15,0,15,0.16
2013-8-3,78,71,66,65,63,61,90,76,56,29.81,29.72,7,0,11,0.00
2013-8-4,80,68,59,62,58,54,92,71,42,29.83,29.70,9,0,9,0.00
2013-8-5,78,65,56,57,50,43,88,62,30,29.99,29.83,9,0,9,0.00
2013-8-6,78,65,50,56,52,48,92,68,43,30.09,29.98,7,0,7,0.00
2013-8-7,80,68,56,60,55,49,96,67,37,30.13,30.05,8,0,8,0.00
2013-8-8,80,71,64,71,66,54,94,83,69,30.08,29.95,11,1,11,0.08
2013-8-9,74,72,71,73,71,69,98,94,90,29.97,29.69,11,1,11,0.86
2013-8-10,84,74,63,72,63,55,98,72,40,29.94,29.73,12,0,12,0.00
2013-8-11,80,68,54,60,56,50,95,69,43,30.02,29.94,8,0,8,0.00
2013-8-12,82,71,61,65,60,54,91,70,43,29.97,29.86,10,0,10,0.00
2013-8-13,76,68,64,67,64,61,93,87,69,29.86,29.63,5,0,5,0.01
2013-8-14,75,67,61,63,56,51,95,68,48,29.90,29.60,15,1,15,0.00
2013-8-15,77,65,54,55,52,49,91,66,41,30.05,29.90,10,0,10,0.00
2013-8-16,80,68,55,59,55,52,91,67,40,30.13,30.05,13,0,13,0.00
2013-8-17,80,68,56,61,58,54,94,73,46,30.22,30.13,7,0,7,0.00
2013-8-18,79,69,60,64,60,55,95,76,45,30.21,30.02,9,0,9,0.00
2013-8-19,82,71,59,64,60,56,91,71,46,30.03,29.88,8,0,8,0.00
2013-8-20,86,74,63,66,63,58,92,69,38,30.03,29.91,9,0,9,0.00
2013-8-21,88,75,62,67,64,60,93,72,44,30.08,29.77,12,0,12,0.00
2013-8-22,84,74,67,72,67,63,90,79,56,29.94,29.77,12,1,14,0.00
2013-8-23,77,73,63,69,62,52,87,68,50,30.05,29.79,7,1,14,0.00
2013-8-24,77,66,56,54,49,41,82,57,32,30.27,30.06,9,0,9,0.00
2013-8-25,83,68,53,58,54,49,94,64,37,30.30,30.13,11,0,11,0.00
2013-8-26,79,71,66,67,62,56,82,73,60,30.13,29.81,16,1,17,0.00
2013-8-27,80,71,64,69,67,63,98,88,65,29.83,29.77,7,0,7,0.04
2013-8-28,79,68,61,68,64,60,98,87,64,29.92,29.80,6,0,6,0.00
2013-8-29,65,63,61,64,61,58,98,94,89,30.01,29.89,9,0,9,0.02
2013-8-30,82,70,62,68,63,58,91,82,61,29.97,29.76,10,0,10,0.00
2013-8-31,80,74,69,74,70,67,97,90,79,29.77,29.73,11,0,11,0.05